JST8990 YSSY-YCFS
Flight info
| Callsign | JST8990 |
|---|---|
| Flight time | 0h 45m |
| Altitude | 35000 |
| Route | OLSEM Y193 BANDA J70 CFS |
| Aircraft | A320/M-SDE3FGHIRWY/LB1 |
Departure
| Time | 2026-05-05 20:52 |
|---|---|
| Airport | Sydney Kingsford Smith International Airport (YSSY) |
Arrival
| Time | 2026-05-05 21:37 |
|---|---|
| Airport | Coffs Harbour Airport (YCFS) |
| Time | Latitude | Longitude | Altitude | Speed | Heading |
|---|---|---|---|---|---|
| 2026-05-05 20:28 | -33.92954 | 151.18114 | 30 ft | 0 kts | 241° |
| 2026-05-05 20:39 | -33.92950 | 151.18123 | 28 ft | 4 kts | 241° |
| 2026-05-05 20:39 | -33.92938 | 151.18151 | 28 ft | 2 kts | 240° |
| 2026-05-05 20:39 | -33.92927 | 151.18172 | 29 ft | 4 kts | 249° |
| 2026-05-05 20:40 | -33.92928 | 151.18191 | 28 ft | 4 kts | 303° |
| 2026-05-05 20:40 | -33.92946 | 151.18215 | 27 ft | 4 kts | 314° |
| 2026-05-05 20:40 | -33.92958 | 151.18233 | 29 ft | 0 kts | 291° |
| 2026-05-05 20:42 | -33.92965 | 151.18208 | 30 ft | 8 kts | 234° |
| 2026-05-05 20:42 | -33.93049 | 151.18182 | 30 ft | 15 kts | 189° |
| 2026-05-05 20:43 | -33.93105 | 151.18076 | 30 ft | 19 kts | 277° |
| 2026-05-05 20:43 | -33.93077 | 151.17899 | 30 ft | 24 kts | 279° |
| 2026-05-05 20:43 | -33.93032 | 151.17698 | 30 ft | 26 kts | 301° |
| 2026-05-05 20:43 | -33.93027 | 151.17551 | 30 ft | 16 kts | 223° |
| 2026-05-05 20:44 | -33.93136 | 151.17531 | 30 ft | 15 kts | 172° |
| 2026-05-05 20:44 | -33.93258 | 151.17559 | 30 ft | 20 kts | 166° |
| 2026-05-05 20:44 | -33.93408 | 151.17595 | 30 ft | 18 kts | 174° |
| 2026-05-05 20:44 | -33.93529 | 151.17595 | 30 ft | 19 kts | 170° |
| 2026-05-05 20:45 | -33.93821 | 151.17709 | 30 ft | 20 kts | 157° |
| 2026-05-05 20:45 | -33.93911 | 151.17782 | 30 ft | 16 kts | 166° |
| 2026-05-05 20:45 | -33.94042 | 151.17815 | 29 ft | 22 kts | 169° |
| 2026-05-05 20:46 | -33.94209 | 151.17856 | 30 ft | 27 kts | 167° |
| 2026-05-05 20:46 | -33.94383 | 151.17903 | 30 ft | 23 kts | 168° |
| 2026-05-05 20:46 | -33.94502 | 151.17883 | 30 ft | 17 kts | 184° |
| 2026-05-05 20:46 | -33.94633 | 151.17910 | 28 ft | 21 kts | 168° |
| 2026-05-05 20:47 | -33.94795 | 151.17953 | 30 ft | 26 kts | 168° |
| 2026-05-05 20:47 | -33.94992 | 151.18002 | 31 ft | 31 kts | 168° |
| 2026-05-05 20:47 | -33.95099 | 151.18072 | 31 ft | 17 kts | 105° |
| 2026-05-05 20:47 | -33.95077 | 151.18226 | 31 ft | 21 kts | 78° |
| 2026-05-05 20:48 | -33.95043 | 151.18420 | 31 ft | 25 kts | 78° |
| 2026-05-05 20:48 | -33.95103 | 151.18532 | 30 ft | 18 kts | 141° |
| 2026-05-05 20:48 | -33.95210 | 151.18646 | 29 ft | 23 kts | 138° |
| 2026-05-05 20:48 | -33.95369 | 151.18729 | 30 ft | 28 kts | 166° |
| 2026-05-05 20:49 | -33.95564 | 151.18783 | 30 ft | 29 kts | 169° |
| 2026-05-05 20:49 | -33.95751 | 151.18832 | 30 ft | 28 kts | 167° |
| 2026-05-05 20:49 | -33.95937 | 151.18879 | 30 ft | 27 kts | 168° |
| 2026-05-05 20:49 | -33.96125 | 151.18930 | 29 ft | 26 kts | 166° |
| 2026-05-05 20:50 | -33.96312 | 151.18978 | 30 ft | 25 kts | 168° |
| 2026-05-05 20:50 | -33.96501 | 151.19025 | 30 ft | 30 kts | 168° |
| 2026-05-05 20:50 | -33.96670 | 151.19070 | 30 ft | 15 kts | 168° |
| 2026-05-05 20:50 | -33.96690 | 151.19171 | 27 ft | 18 kts | 39° |
| 2026-05-05 20:51 | -33.96545 | 151.19220 | 27 ft | 20 kts | 7° |
| 2026-05-05 20:51 | -33.96467 | 151.19218 | 27 ft | 0 kts | 349° |
| 2026-05-05 20:51 | -33.96236 | 151.19156 | 27 ft | 80 kts | 348° |
| 2026-05-05 20:52 | -33.95453 | 151.18941 | 177 ft | 135 kts | 344° |
| 2026-05-05 20:52 | -33.94493 | 151.18816 | 905 ft | 149 kts | 15° |
| 2026-05-05 20:52 | -33.93695 | 151.19607 | 1661 ft | 156 kts | 58° |
| 2026-05-05 20:52 | -33.92944 | 151.20626 | 2280 ft | 179 kts | 39° |
| 2026-05-05 20:53 | -33.91820 | 151.21493 | 2932 ft | 205 kts | 32° |
| 2026-05-05 20:53 | -33.90501 | 151.22382 | 3670 ft | 230 kts | 31° |
| 2026-05-05 20:53 | -33.88999 | 151.23379 | 4529 ft | 254 kts | 31° |
| 2026-05-05 20:53 | -33.87450 | 151.24424 | 5709 ft | 262 kts | 31° |
| 2026-05-05 20:54 | -33.85851 | 151.25525 | 6984 ft | 267 kts | 30° |
| 2026-05-05 20:54 | -33.84246 | 151.26697 | 8149 ft | 274 kts | 36° |
| 2026-05-05 20:54 | -33.82935 | 151.28409 | 9226 ft | 286 kts | 58° |
| 2026-05-05 20:54 | -33.82184 | 151.30664 | 10254 ft | 298 kts | 72° |
| 2026-05-05 20:55 | -33.81542 | 151.33136 | 10861 ft | 321 kts | 71° |
| 2026-05-05 20:55 | -33.80822 | 151.35730 | 11708 ft | 331 kts | 68° |
| 2026-05-05 20:55 | -33.79754 | 151.38199 | 12674 ft | 336 kts | 55° |
| 2026-05-05 20:55 | -33.78309 | 151.40423 | 13672 ft | 340 kts | 49° |
| 2026-05-05 20:56 | -33.76794 | 151.42639 | 14601 ft | 345 kts | 49° |
| 2026-05-05 20:56 | -33.75271 | 151.44901 | 15459 ft | 351 kts | 50° |
| 2026-05-05 20:56 | -33.73731 | 151.47204 | 16303 ft | 356 kts | 50° |
| 2026-05-05 20:56 | -33.72168 | 151.49546 | 17145 ft | 362 kts | 50° |
| 2026-05-05 20:57 | -33.70581 | 151.51917 | 17978 ft | 367 kts | 50° |
| 2026-05-05 20:57 | -33.68965 | 151.54320 | 18769 ft | 373 kts | 49° |
| 2026-05-05 20:57 | -33.67343 | 151.56725 | 19528 ft | 377 kts | 49° |
| 2026-05-05 20:57 | -33.65661 | 151.59164 | 20308 ft | 381 kts | 45° |
| 2026-05-05 20:58 | -33.63713 | 151.61317 | 21070 ft | 382 kts | 35° |
| 2026-05-05 20:58 | -33.61507 | 151.63110 | 21819 ft | 385 kts | 31° |
| 2026-05-05 20:58 | -33.59253 | 151.64870 | 22553 ft | 389 kts | 30° |
| 2026-05-05 20:58 | -33.56976 | 151.66652 | 23270 ft | 392 kts | 30° |
| 2026-05-05 20:59 | -33.54680 | 151.68452 | 23961 ft | 396 kts | 30° |
| 2026-05-05 20:59 | -33.52360 | 151.70271 | 24570 ft | 400 kts | 30° |
| 2026-05-05 20:59 | -33.49974 | 151.71983 | 25184 ft | 401 kts | 23° |
| 2026-05-05 20:59 | -33.47388 | 151.73218 | 25784 ft | 400 kts | 13° |
| 2026-05-05 21:00 | -33.44697 | 151.74093 | 26396 ft | 402 kts | 11° |
| 2026-05-05 21:00 | -33.41984 | 151.74968 | 27008 ft | 405 kts | 11° |
| 2026-05-05 21:00 | -33.39252 | 151.75852 | 27624 ft | 408 kts | 11° |
| 2026-05-05 21:00 | -33.36509 | 151.76738 | 28232 ft | 411 kts | 11° |
| 2026-05-05 21:01 | -33.33736 | 151.77634 | 28821 ft | 414 kts | 11° |
| 2026-05-05 21:01 | -33.30944 | 151.78536 | 29404 ft | 417 kts | 11° |
| 2026-05-05 21:01 | -33.28135 | 151.79444 | 29993 ft | 420 kts | 10° |
| 2026-05-05 21:01 | -33.25298 | 151.80360 | 30530 ft | 424 kts | 10° |
| 2026-05-05 21:02 | -33.22444 | 151.81284 | 31020 ft | 427 kts | 10° |
| 2026-05-05 21:02 | -33.19564 | 151.82214 | 31516 ft | 430 kts | 10° |
| 2026-05-05 21:02 | -33.16660 | 151.83146 | 32027 ft | 433 kts | 9° |
| 2026-05-05 21:02 | -33.13756 | 151.84075 | 32721 ft | 431 kts | 9° |
| 2026-05-05 21:03 | -33.10868 | 151.85003 | 33440 ft | 429 kts | 9° |
| 2026-05-05 21:03 | -33.07988 | 151.85935 | 34151 ft | 428 kts | 9° |
| 2026-05-05 21:03 | -33.05156 | 151.86851 | 34739 ft | 427 kts | 9° |
| 2026-05-05 21:03 | -33.02285 | 151.87775 | 35078 ft | 427 kts | 8° |
| 2026-05-05 21:04 | -32.96617 | 151.89602 | 35191 ft | 410 kts | 8° |
| 2026-05-05 21:04 | -32.91182 | 151.91346 | 35187 ft | 402 kts | 8° |
| 2026-05-05 21:05 | -32.85790 | 151.93052 | 35192 ft | 400 kts | 8° |
| 2026-05-05 21:05 | -32.80411 | 151.94765 | 35198 ft | 400 kts | 8° |
| 2026-05-05 21:06 | -32.75033 | 151.96479 | 35190 ft | 400 kts | 7° |
| 2026-05-05 21:06 | -32.69657 | 151.98198 | 35193 ft | 400 kts | 7° |
| 2026-05-05 21:07 | -32.64313 | 151.99907 | 35195 ft | 400 kts | 7° |
| 2026-05-05 21:07 | -32.58931 | 152.01607 | 35197 ft | 400 kts | 7° |
| 2026-05-05 21:08 | -32.53551 | 152.03314 | 35201 ft | 400 kts | 7° |
| 2026-05-05 21:08 | -32.48178 | 152.05023 | 35204 ft | 400 kts | 7° |
| 2026-05-05 21:09 | -32.42802 | 152.06728 | 35200 ft | 399 kts | 7° |
| 2026-05-05 21:09 | -32.37432 | 152.08422 | 35204 ft | 399 kts | 7° |
| 2026-05-05 21:10 | -32.32096 | 152.10112 | 35205 ft | 399 kts | 7° |
| 2026-05-05 21:10 | -32.26730 | 152.11810 | 35208 ft | 399 kts | 6° |
| 2026-05-05 21:11 | -32.21283 | 152.13506 | 35203 ft | 417 kts | 6° |
| 2026-05-05 21:11 | -32.18428 | 152.14387 | 35203 ft | 431 kts | 7° |
| 2026-05-05 21:11 | -32.15477 | 152.15304 | 35205 ft | 443 kts | 7° |
| 2026-05-05 21:12 | -32.09461 | 152.17214 | 35203 ft | 450 kts | 7° |
| 2026-05-05 21:12 | -32.03410 | 152.19145 | 35201 ft | 450 kts | 7° |
| 2026-05-05 21:13 | -31.97357 | 152.21047 | 35197 ft | 450 kts | 7° |
| 2026-05-05 21:13 | -31.91304 | 152.22928 | 35201 ft | 450 kts | 7° |
| 2026-05-05 21:14 | -31.85248 | 152.24811 | 35198 ft | 450 kts | 7° |
| 2026-05-05 21:14 | -31.79195 | 152.26703 | 35196 ft | 450 kts | 7° |
| 2026-05-05 21:15 | -31.73150 | 152.28592 | 35196 ft | 449 kts | 7° |
| 2026-05-05 21:15 | -31.67109 | 152.30466 | 35197 ft | 449 kts | 6° |
| 2026-05-05 21:16 | -31.61071 | 152.32342 | 35194 ft | 449 kts | 6° |
| 2026-05-05 21:16 | -31.55073 | 152.34211 | 35190 ft | 449 kts | 6° |
| 2026-05-05 21:17 | -31.49041 | 152.36084 | 35187 ft | 448 kts | 6° |
| 2026-05-05 21:17 | -31.43008 | 152.37946 | 35198 ft | 448 kts | 6° |
| 2026-05-05 21:18 | -31.36979 | 152.39814 | 35188 ft | 448 kts | 6° |
| 2026-05-05 21:18 | -31.30946 | 152.41676 | 35183 ft | 448 kts | 6° |
| 2026-05-05 21:19 | -31.24918 | 152.43535 | 35176 ft | 448 kts | 6° |
| 2026-05-05 21:19 | -31.18887 | 152.45392 | 35179 ft | 448 kts | 6° |
| 2026-05-05 21:20 | -31.12855 | 152.47249 | 35168 ft | 448 kts | 6° |
| 2026-05-05 21:20 | -31.06822 | 152.49108 | 35175 ft | 448 kts | 6° |
| 2026-05-05 21:21 | -31.00788 | 152.50957 | 35173 ft | 448 kts | 6° |
| 2026-05-05 21:21 | -30.94795 | 152.52791 | 35173 ft | 448 kts | 6° |
| 2026-05-05 21:22 | -30.91770 | 152.53719 | 34951 ft | 449 kts | 6° |
| 2026-05-05 21:22 | -30.88753 | 152.54639 | 34472 ft | 448 kts | 6° |
| 2026-05-05 21:22 | -30.85716 | 152.55562 | 33370 ft | 454 kts | 6° |
| 2026-05-05 21:22 | -30.82675 | 152.56700 | 32275 ft | 465 kts | 14° |
| 2026-05-05 21:23 | -30.79733 | 152.58423 | 31045 ft | 482 kts | 24° |
| 2026-05-05 21:23 | -30.76989 | 152.60774 | 29736 ft | 499 kts | 35° |
| 2026-05-05 21:23 | -30.74503 | 152.63620 | 28589 ft | 500 kts | 39° |
| 2026-05-05 21:23 | -30.72044 | 152.66483 | 27261 ft | 502 kts | 39° |
| 2026-05-05 21:24 | -30.69555 | 152.69344 | 25894 ft | 503 kts | 39° |
| 2026-05-05 21:24 | -30.67098 | 152.72146 | 24575 ft | 503 kts | 39° |
| 2026-05-05 21:24 | -30.64607 | 152.74974 | 23553 ft | 496 kts | 39° |
| 2026-05-05 21:24 | -30.62164 | 152.77750 | 22438 ft | 487 kts | 40° |
| 2026-05-05 21:25 | -30.59764 | 152.80480 | 21287 ft | 479 kts | 40° |
| 2026-05-05 21:25 | -30.57405 | 152.83167 | 20176 ft | 473 kts | 41° |
| 2026-05-05 21:25 | -30.55086 | 152.85810 | 19134 ft | 466 kts | 41° |
| 2026-05-05 21:25 | -30.52786 | 152.88433 | 18039 ft | 461 kts | 41° |
| 2026-05-05 21:26 | -30.50516 | 152.91016 | 16932 ft | 453 kts | 41° |
| 2026-05-05 21:26 | -30.48295 | 152.93544 | 15897 ft | 444 kts | 41° |
| 2026-05-05 21:26 | -30.46107 | 152.96036 | 14914 ft | 436 kts | 41° |
| 2026-05-05 21:26 | -30.43967 | 152.98472 | 14254 ft | 422 kts | 41° |
| 2026-05-05 21:27 | -30.42607 | 153.00020 | 14166 ft | 406 kts | 41° |
| 2026-05-05 21:27 | -30.40020 | 153.02964 | 14005 ft | 375 kts | 41° |
| 2026-05-05 21:27 | -30.38810 | 153.04341 | 13923 ft | 361 kts | 41° |
| 2026-05-05 21:27 | -30.37088 | 153.06299 | 13737 ft | 332 kts | 40° |
| 2026-05-05 21:28 | -30.35481 | 153.08121 | 13214 ft | 317 kts | 40° |
| 2026-05-05 21:28 | -30.33929 | 153.09874 | 12624 ft | 307 kts | 40° |
| 2026-05-05 21:28 | -30.31821 | 153.11959 | 11737 ft | 296 kts | 29° |
| 2026-05-05 21:28 | -30.30015 | 153.13043 | 11052 ft | 289 kts | 19° |
| 2026-05-05 21:29 | -30.28761 | 153.13640 | 10579 ft | 288 kts | 19° |
| 2026-05-05 21:29 | -30.26922 | 153.14527 | 9894 ft | 286 kts | 20° |
| 2026-05-05 21:29 | -30.25096 | 153.15413 | 9158 ft | 283 kts | 20° |
| 2026-05-05 21:29 | -30.23285 | 153.16293 | 8446 ft | 281 kts | 20° |
| 2026-05-05 21:30 | -30.21518 | 153.17152 | 7793 ft | 277 kts | 20° |
| 2026-05-05 21:30 | -30.19758 | 153.18005 | 7192 ft | 272 kts | 20° |
| 2026-05-05 21:30 | -30.18018 | 153.18848 | 6559 ft | 270 kts | 20° |
| 2026-05-05 21:30 | -30.16323 | 153.19681 | 6171 ft | 258 kts | 24° |
| 2026-05-05 21:31 | -30.14958 | 153.20915 | 5916 ft | 245 kts | 51° |
| 2026-05-05 21:31 | -30.14272 | 153.22641 | 5665 ft | 233 kts | 79° |
| 2026-05-05 21:31 | -30.14320 | 153.24439 | 5418 ft | 220 kts | 105° |
| 2026-05-05 21:31 | -30.14983 | 153.25957 | 5192 ft | 206 kts | 130° |
| 2026-05-05 21:32 | -30.16037 | 153.26994 | 4732 ft | 197 kts | 153° |
| 2026-05-05 21:32 | -30.17330 | 153.27276 | 4327 ft | 186 kts | 187° |
| 2026-05-05 21:32 | -30.18462 | 153.26706 | 4036 ft | 175 kts | 218° |
| 2026-05-05 21:32 | -30.19188 | 153.25621 | 3796 ft | 167 kts | 233° |
| 2026-05-05 21:33 | -30.19916 | 153.24622 | 3554 ft | 157 kts | 220° |
| 2026-05-05 21:33 | -30.20720 | 153.23807 | 3325 ft | 151 kts | 217° |
| 2026-05-05 21:33 | -30.21491 | 153.23033 | 3110 ft | 153 kts | 217° |
| 2026-05-05 21:33 | -30.22318 | 153.22208 | 2882 ft | 159 kts | 218° |
| 2026-05-05 21:34 | -30.23153 | 153.21372 | 2650 ft | 159 kts | 218° |
| 2026-05-05 21:34 | -30.23989 | 153.20534 | 2412 ft | 158 kts | 218° |
| 2026-05-05 21:34 | -30.24820 | 153.19702 | 2187 ft | 158 kts | 218° |
| 2026-05-05 21:34 | -30.25645 | 153.18873 | 1957 ft | 156 kts | 218° |
| 2026-05-05 21:35 | -30.26441 | 153.18071 | 1722 ft | 144 kts | 219° |
| 2026-05-05 21:35 | -30.27155 | 153.17350 | 1520 ft | 130 kts | 218° |
| 2026-05-05 21:35 | -30.27820 | 153.16680 | 1342 ft | 125 kts | 218° |
| 2026-05-05 21:35 | -30.28466 | 153.16031 | 1157 ft | 123 kts | 219° |
| 2026-05-05 21:36 | -30.29107 | 153.15388 | 985 ft | 122 kts | 221° |
| 2026-05-05 21:36 | -30.29749 | 153.14745 | 814 ft | 120 kts | 221° |
| 2026-05-05 21:36 | -30.30379 | 153.14113 | 643 ft | 121 kts | 223° |
| 2026-05-05 21:36 | -30.31007 | 153.13478 | 441 ft | 119 kts | 223° |
| 2026-05-05 21:37 | -30.31631 | 153.12852 | 273 ft | 120 kts | 224° |
| 2026-05-05 21:37 | -30.32254 | 153.12225 | 112 ft | 119 kts | 223° |
| 2026-05-05 21:37 | -30.32859 | 153.11629 | 28 ft | 99 kts | 221° |
| 2026-05-05 21:37 | -30.33164 | 153.11324 | 26 ft | 25 kts | 220° |
| 2026-05-05 21:38 | -30.33268 | 153.11220 | 27 ft | 12 kts | 221° |
| 2026-05-05 21:38 | -30.33292 | 153.11130 | 31 ft | 16 kts | 301° |
| 2026-05-05 21:38 | -30.33217 | 153.11049 | 29 ft | 17 kts | 344° |
| 2026-05-05 21:38 | -30.33118 | 153.11122 | 29 ft | 19 kts | 41° |
| 2026-05-05 21:39 | -30.33029 | 153.11216 | 28 ft | 18 kts | 40° |
| 2026-05-05 21:39 | -30.32921 | 153.11321 | 30 ft | 23 kts | 41° |
| 2026-05-05 21:39 | -30.32808 | 153.11435 | 29 ft | 22 kts | 40° |
| 2026-05-05 21:39 | -30.32679 | 153.11562 | 27 ft | 27 kts | 40° |
| 2026-05-05 21:40 | -30.32556 | 153.11685 | 27 ft | 19 kts | 41° |
| 2026-05-05 21:40 | -30.32458 | 153.11770 | 27 ft | 16 kts | 15° |
| 2026-05-05 21:40 | -30.32377 | 153.11703 | 5 ft | 14 kts | 309° |
| 2026-05-05 21:40 | -30.32367 | 153.11646 | 35 ft | 4 kts | 225° |
| 2026-05-05 21:41 | -30.32387 | 153.11608 | 27 ft | 5 kts | 283° |
| 2026-05-05 21:41 | -30.32367 | 153.11597 | 27 ft | 3 kts | 343° |
| 2026-05-05 21:41 | -30.32354 | 153.11592 | 27 ft | 1 kts | 342° |
| 2026-05-05 21:41 | -30.32352 | 153.11591 | 27 ft | 0 kts | 341° |